KRGA

Central Kentucky Regional Airport

Richmond, Kentucky, USA
METAR KRGA 280115Z AUTO 00000KT 10SM CLR 23/21 A2995 RMK AO2
Observed Flight Rules
May-28 @ 01:15 UTC (7 minutes ago) Visual Flight Rules
Visibility Clouds
10 miles
  • Clear skies
Temperatures Readings
Current 23°C / 73°F
Dewpoint 21°C / 70°F
Humidity 89%
Altimeter 29.95" Hg
Pressure 1014 hPa
Elevation 305
METAR KRGA 280115Z AUTO 00000KT 10SM CLR 23/21 A2995 RMK AO2
Observed Flight Rules
May-28 @ 01:15 UTC
(7 minutes ago)
VFR
Clouds
  • Clear skies
Temperature Dewpoint
23°C / 73°F 21°C / 70°F
Humidity Altimeter Pressure
89% 29.95" Hg 1014 hPa